sensor_id;sensor_type;location;lat;lon;timestamp;temperature;humidity
4985;DHT22;2509;49.902;8.600;2022-07-11T00:01:25;19.00;99.90
4985;DHT22;2509;49.902;8.600;2022-07-11T00:04:27;18.90;99.90
4985;DHT22;2509;49.902;8.600;2022-07-11T00:07:30;18.90;99.90
4985;DHT22;2509;49.902;8.600;2022-07-11T00:10:32;18.90;99.90
4985;DHT22;2509;49.902;8.600;2022-07-11T00:13:35;18.90;99.90
4985;DHT22;2509;49.902;8.600;2022-07-11T00:16:37;18.90;99.90
4985;DHT22;2509;49.902;8.600;2022-07-11T00:19:38;18.90;99.90
4985;DHT22;2509;49.902;8.600;2022-07-11T00:22:40;18.90;99.90
4985;DHT22;2509;49.902;8.600;2022-07-11T00:25:42;18.80;99.90
4985;DHT22;2509;49.902;8.600;2022-07-11T00:28:45;18.80;99.90
4985;DHT22;2509;49.902;8.600;2022-07-11T00:31:47;18.80;99.90
4985;DHT22;2509;49.902;8.600;2022-07-11T00:34:49;18.70;99.90
4985;DHT22;2509;49.902;8.600;2022-07-11T00:37:51;18.70;99.90
4985;DHT22;2509;49.902;8.600;2022-07-11T00:40:53;18.70;99.90
4985;DHT22;2509;49.902;8.600;2022-07-11T00:43:58;18.70;99.90
4985;DHT22;2509;49.902;8.600;2022-07-11T00:47:00;18.70;99.90
4985;DHT22;2509;49.902;8.600;2022-07-11T00:50:01;18.70;99.90
4985;DHT22;2509;49.902;8.600;2022-07-11T00:53:04;18.70;99.90
4985;DHT22;2509;49.902;8.600;2022-07-11T00:56:07;18.70;99.90
4985;DHT22;2509;49.902;8.600;2022-07-11T00:59:10;18.70;99.90
4985;DHT22;2509;49.902;8.600;2022-07-11T01:02:12;18.70;99.90
4985;DHT22;2509;49.902;8.600;2022-07-11T01:05:14;18.80;99.90
4985;DHT22;2509;49.902;8.600;2022-07-11T01:08:16;18.70;99.90
4985;DHT22;2509;49.902;8.600;2022-07-11T01:11:18;18.60;99.90
4985;DHT22;2509;49.902;8.600;2022-07-11T01:14:21;18.50;99.90
4985;DHT22;2509;49.902;8.600;2022-07-11T01:17:23;18.50;99.90
4985;DHT22;2509;49.902;8.600;2022-07-11T01:20:25;18.50;99.90
4985;DHT22;2509;49.902;8.600;2022-07-11T01:23:29;18.50;99.90
4985;DHT22;2509;49.902;8.600;2022-07-11T01:26:30;18.50;99.90
4985;DHT22;2509;49.902;8.600;2022-07-11T01:29:33;18.50;99.90
4985;DHT22;2509;49.902;8.600;2022-07-11T01:32:34;18.60;99.90
4985;DHT22;2509;49.902;8.600;2022-07-11T01:35:36;18.60;99.90
4985;DHT22;2509;49.902;8.600;2022-07-11T01:38:39;18.50;99.90
4985;DHT22;2509;49.902;8.600;2022-07-11T01:41:41;18.50;99.90
4985;DHT22;2509;49.902;8.600;2022-07-11T01:44:43;18.60;99.90
4985;DHT22;2509;49.902;8.600;2022-07-11T01:47:44;18.60;99.90
4985;DHT22;2509;49.902;8.600;2022-07-11T01:50:47;18.60;99.90
4985;DHT22;2509;49.902;8.600;2022-07-11T01:53:50;18.50;99.90
4985;DHT22;2509;49.902;8.600;2022-07-11T01:56:53;18.50;99.90
4985;DHT22;2509;49.902;8.600;2022-07-11T01:59:55;18.50;99.90
4985;DHT22;2509;49.902;8.600;2022-07-11T02:02:57;18.50;99.90
4985;DHT22;2509;49.902;8.600;2022-07-11T02:05:59;18.50;99.90
4985;DHT22;2509;49.902;8.600;2022-07-11T02:09:02;18.50;99.90
4985;DHT22;2509;49.902;8.600;2022-07-11T02:12:05;18.50;99.90
4985;DHT22;2509;49.902;8.600;2022-07-11T02:15:08;18.40;99.90
4985;DHT22;2509;49.902;8.600;2022-07-11T02:18:10;18.40;99.90
4985;DHT22;2509;49.902;8.600;2022-07-11T02:21:12;18.40;99.90
4985;DHT22;2509;49.902;8.600;2022-07-11T02:24:15;18.30;99.90
4985;DHT22;2509;49.902;8.600;2022-07-11T02:27:17;18.30;99.90
4985;DHT22;2509;49.902;8.600;2022-07-11T02:30:19;18.40;99.90
4985;DHT22;2509;49.902;8.600;2022-07-11T02:33:20;18.40;99.90
4985;DHT22;2509;49.902;8.600;2022-07-11T02:36:22;18.30;99.90
4985;DHT22;2509;49.902;8.600;2022-07-11T02:39:25;18.30;99.90
4985;DHT22;2509;49.902;8.600;2022-07-11T02:42:27;18.30;99.90
4985;DHT22;2509;49.902;8.600;2022-07-11T02:45:29;18.20;99.90
4985;DHT22;2509;49.902;8.600;2022-07-11T02:48:31;18.20;99.90
4985;DHT22;2509;49.902;8.600;2022-07-11T02:51:33;18.20;99.90
4985;DHT22;2509;49.902;8.600;2022-07-11T02:54:36;18.20;99.90
4985;DHT22;2509;49.902;8.600;2022-07-11T02:57:39;18.20;99.90
4985;DHT22;2509;49.902;8.600;2022-07-11T03:00:41;18.20;99.90
4985;DHT22;2509;49.902;8.600;2022-07-11T03:03:42;18.20;99.90
4985;DHT22;2509;49.902;8.600;2022-07-11T03:06:44;18.20;99.90
4985;DHT22;2509;49.902;8.600;2022-07-11T03:09:47;18.20;99.90
4985;DHT22;2509;49.902;8.600;2022-07-11T03:12:49;18.20;99.90
4985;DHT22;2509;49.902;8.600;2022-07-11T03:15:51;18.20;99.90
4985;DHT22;2509;49.902;8.600;2022-07-11T03:18:53;18.20;99.90
4985;DHT22;2509;49.902;8.600;2022-07-11T03:21:54;18.20;99.90
4985;DHT22;2509;49.902;8.600;2022-07-11T03:24:57;18.20;99.90
4985;DHT22;2509;49.902;8.600;2022-07-11T03:28:00;18.20;99.90
4985;DHT22;2509;49.902;8.600;2022-07-11T03:31:02;18.20;99.90
4985;DHT22;2509;49.902;8.600;2022-07-11T03:34:04;18.20;99.90
4985;DHT22;2509;49.902;8.600;2022-07-11T03:37:06;18.20;99.90
4985;DHT22;2509;49.902;8.600;2022-07-11T03:40:10;18.10;99.90
4985;DHT22;2509;49.902;8.600;2022-07-11T03:43:12;18.10;99.90
4985;DHT22;2509;49.902;8.600;2022-07-11T03:46:14;18.10;99.90
4985;DHT22;2509;49.902;8.600;2022-07-11T03:49:16;18.10;99.90
4985;DHT22;2509;49.902;8.600;2022-07-11T03:52:17;18.10;99.90
4985;DHT22;2509;49.902;8.600;2022-07-11T03:55:21;18.10;99.90
4985;DHT22;2509;49.902;8.600;2022-07-11T03:58:22;18.10;99.90
4985;DHT22;2509;49.902;8.600;2022-07-11T04:01:24;18.00;99.90
4985;DHT22;2509;49.902;8.600;2022-07-11T04:04:26;18.10;99.90
4985;DHT22;2509;49.902;8.600;2022-07-11T04:07:28;18.00;99.90
4985;DHT22;2509;49.902;8.600;2022-07-11T04:10:31;17.90;99.90
4985;DHT22;2509;49.902;8.600;2022-07-11T04:13:33;18.00;99.90
4985;DHT22;2509;49.902;8.600;2022-07-11T04:16:35;18.00;99.90
4985;DHT22;2509;49.902;8.600;2022-07-11T04:19:36;18.00;99.90
4985;DHT22;2509;49.902;8.600;2022-07-11T04:22:38;17.90;99.90
4985;DHT22;2509;49.902;8.600;2022-07-11T04:25:42;18.00;99.90
4985;DHT22;2509;49.902;8.600;2022-07-11T04:28:43;18.00;99.90
4985;DHT22;2509;49.902;8.600;2022-07-11T04:31:45;18.00;99.90
4985;DHT22;2509;49.902;8.600;2022-07-11T04:34:47;18.00;99.90
4985;DHT22;2509;49.902;8.600;2022-07-11T04:37:49;18.00;99.90
4985;DHT22;2509;49.902;8.600;2022-07-11T04:40:52;18.10;99.90
4985;DHT22;2509;49.902;8.600;2022-07-11T04:43:54;18.10;99.90
4985;DHT22;2509;49.902;8.600;2022-07-11T04:46:55;18.10;99.90
4985;DHT22;2509;49.902;8.600;2022-07-11T04:49:57;18.20;99.90
4985;DHT22;2509;49.902;8.600;2022-07-11T04:52:59;18.20;99.90
4985;DHT22;2509;49.902;8.600;2022-07-11T04:56:02;18.20;99.90
4985;DHT22;2509;49.902;8.600;2022-07-11T04:59:04;18.20;99.90
4985;DHT22;2509;49.902;8.600;2022-07-11T05:02:06;18.20;99.90
4985;DHT22;2509;49.902;8.600;2022-07-11T05:05:10;18.30;99.90
4985;DHT22;2509;49.902;8.600;2022-07-11T05:08:11;18.30;99.90
4985;DHT22;2509;49.902;8.600;2022-07-11T05:11:15;18.30;99.90
4985;DHT22;2509;49.902;8.600;2022-07-11T05:14:16;18.30;99.90
4985;DHT22;2509;49.902;8.600;2022-07-11T05:17:18;18.40;99.90
4985;DHT22;2509;49.902;8.600;2022-07-11T05:20:20;18.40;99.90
4985;DHT22;2509;49.902;8.600;2022-07-11T05:23:21;18.40;99.90
4985;DHT22;2509;49.902;8.600;2022-07-11T05:26:25;18.50;99.90
4985;DHT22;2509;49.902;8.600;2022-07-11T05:29:26;18.50;99.90
4985;DHT22;2509;49.902;8.600;2022-07-11T05:32:28;18.60;99.90
4985;DHT22;2509;49.902;8.600;2022-07-11T05:35:30;18.60;99.90
4985;DHT22;2509;49.902;8.600;2022-07-11T05:38:32;18.70;99.90
4985;DHT22;2509;49.902;8.600;2022-07-11T05:41:35;18.80;99.90
4985;DHT22;2509;49.902;8.600;2022-07-11T05:44:37;18.80;99.90
4985;DHT22;2509;49.902;8.600;2022-07-11T05:47:38;18.80;99.90
4985;DHT22;2509;49.902;8.600;2022-07-11T05:50:40;18.80;99.90
4985;DHT22;2509;49.902;8.600;2022-07-11T05:53:42;18.90;99.90
4985;DHT22;2509;49.902;8.600;2022-07-11T05:56:45;19.00;99.90
4985;DHT22;2509;49.902;8.600;2022-07-11T05:59:47;19.10;99.90
4985;DHT22;2509;49.902;8.600;2022-07-11T06:02:49;19.10;99.90
4985;DHT22;2509;49.902;8.600;2022-07-11T06:05:50;19.20;99.90
4985;DHT22;2509;49.902;8.600;2022-07-11T06:08:52;19.30;99.90
4985;DHT22;2509;49.902;8.600;2022-07-11T06:11:56;19.40;99.90
4985;DHT22;2509;49.902;8.600;2022-07-11T06:14:58;19.40;99.90
4985;DHT22;2509;49.902;8.600;2022-07-11T06:17:59;19.50;99.90
4985;DHT22;2509;49.902;8.600;2022-07-11T06:21:01;19.60;99.90
4985;DHT22;2509;49.902;8.600;2022-07-11T06:24:03;19.70;99.90
4985;DHT22;2509;49.902;8.600;2022-07-11T06:27:06;19.70;99.90
4985;DHT22;2509;49.902;8.600;2022-07-11T06:30:09;19.80;99.90
4985;DHT22;2509;49.902;8.600;2022-07-11T06:33:10;19.80;99.90
4985;DHT22;2509;49.902;8.600;2022-07-11T06:36:12;19.90;99.90
4985;DHT22;2509;49.902;8.600;2022-07-11T06:39:14;19.80;99.90
4985;DHT22;2509;49.902;8.600;2022-07-11T06:42:17;19.70;99.90
4985;DHT22;2509;49.902;8.600;2022-07-11T06:45:19;19.80;99.90
4985;DHT22;2509;49.902;8.600;2022-07-11T06:48:21;19.90;99.90
4985;DHT22;2509;49.902;8.600;2022-07-11T06:51:22;20.00;99.90
4985;DHT22;2509;49.902;8.600;2022-07-11T06:54:24;20.10;99.90
4985;DHT22;2509;49.902;8.600;2022-07-11T06:57:27;20.40;99.90
4985;DHT22;2509;49.902;8.600;2022-07-11T07:00:29;20.50;99.90
4985;DHT22;2509;49.902;8.600;2022-07-11T07:03:33;20.60;99.90
4985;DHT22;2509;49.902;8.600;2022-07-11T07:06:35;20.70;99.90
4985;DHT22;2509;49.902;8.600;2022-07-11T07:09:36;20.90;99.90
4985;DHT22;2509;49.902;8.600;2022-07-11T07:12:39;21.10;99.90
4985;DHT22;2509;49.902;8.600;2022-07-11T07:15:41;21.20;99.90
4985;DHT22;2509;49.902;8.600;2022-07-11T07:18:43;21.30;99.90
4985;DHT22;2509;49.902;8.600;2022-07-11T07:21:46;21.30;99.90
4985;DHT22;2509;49.902;8.600;2022-07-11T07:24:48;21.60;99.90
4985;DHT22;2509;49.902;8.600;2022-07-11T07:27:51;21.80;99.90
4985;DHT22;2509;49.902;8.600;2022-07-11T07:30:53;22.00;99.90
4985;DHT22;2509;49.902;8.600;2022-07-11T07:33:55;22.00;99.90
4985;DHT22;2509;49.902;8.600;2022-07-11T07:36:57;22.10;99.90
4985;DHT22;2509;49.902;8.600;2022-07-11T07:39:59;22.30;99.90
4985;DHT22;2509;49.902;8.600;2022-07-11T07:43:02;22.20;99.90
4985;DHT22;2509;49.902;8.600;2022-07-11T07:46:04;22.20;99.90
4985;DHT22;2509;49.902;8.600;2022-07-11T07:49:06;22.10;99.90
4985;DHT22;2509;49.902;8.600;2022-07-11T07:52:07;22.00;99.90
4985;DHT22;2509;49.902;8.600;2022-07-11T07:55:09;22.00;99.90
4985;DHT22;2509;49.902;8.600;2022-07-11T07:58:12;22.10;99.90
4985;DHT22;2509;49.902;8.600;2022-07-11T08:01:14;22.10;99.90
4985;DHT22;2509;49.902;8.600;2022-07-11T08:04:33;22.10;99.90
4985;DHT22;2509;49.902;8.600;2022-07-11T08:07:35;22.00;99.90
4985;DHT22;2509;49.902;8.600;2022-07-11T08:10:36;22.10;99.90
4985;DHT22;2509;49.902;8.600;2022-07-11T08:13:41;22.10;99.90
4985;DHT22;2509;49.902;8.600;2022-07-11T08:16:43;22.00;99.90
4985;DHT22;2509;49.902;8.600;2022-07-11T08:19:45;22.10;99.90
4985;DHT22;2509;49.902;8.600;2022-07-11T08:22:46;22.30;99.90
4985;DHT22;2509;49.902;8.600;2022-07-11T08:25:48;22.60;99.90
4985;DHT22;2509;49.902;8.600;2022-07-11T08:28:51;22.90;99.90
4985;DHT22;2509;49.902;8.600;2022-07-11T08:31:53;23.20;99.90
4985;DHT22;2509;49.902;8.600;2022-07-11T08:34:55;23.30;99.90
4985;DHT22;2509;49.902;8.600;2022-07-11T08:37:57;23.10;99.90
4985;DHT22;2509;49.902;8.600;2022-07-11T08:40:58;23.00;99.90
4985;DHT22;2509;49.902;8.600;2022-07-11T08:44:02;22.90;99.90
4985;DHT22;2509;49.902;8.600;2022-07-11T08:47:04;22.80;99.90
4985;DHT22;2509;49.902;8.600;2022-07-11T08:50:07;22.70;99.90
4985;DHT22;2509;49.902;8.600;2022-07-11T08:53:10;22.60;99.90
4985;DHT22;2509;49.902;8.600;2022-07-11T08:56:13;22.40;99.90
4985;DHT22;2509;49.902;8.600;2022-07-11T08:59:19;22.40;99.90
4985;DHT22;2509;49.902;8.600;2022-07-11T09:02:22;22.40;99.90
4985;DHT22;2509;49.902;8.600;2022-07-11T09:05:24;22.40;99.90
4985;DHT22;2509;49.902;8.600;2022-07-11T09:08:26;22.40;99.90
4985;DHT22;2509;49.902;8.600;2022-07-11T09:11:48;22.40;99.90
4985;DHT22;2509;49.902;8.600;2022-07-11T09:14:52;22.50;99.90
4985;DHT22;2509;49.902;8.600;2022-07-11T09:17:53;22.60;99.90
4985;DHT22;2509;49.902;8.600;2022-07-11T09:20:57;22.60;99.90
4985;DHT22;2509;49.902;8.600;2022-07-11T09:24:16;22.70;99.90
4985;DHT22;2509;49.902;8.600;2022-07-11T09:27:40;22.90;99.90
4985;DHT22;2509;49.902;8.600;2022-07-11T09:30:43;23.20;99.90
4985;DHT22;2509;49.902;8.600;2022-07-11T09:34:01;23.50;99.90
4985;DHT22;2509;49.902;8.600;2022-07-11T09:37:03;23.50;99.00
4985;DHT22;2509;49.902;8.600;2022-07-11T09:40:12;23.40;99.50
4985;DHT22;2509;49.902;8.600;2022-07-11T09:43:15;23.50;99.90
4985;DHT22;2509;49.902;8.600;2022-07-11T09:46:26;23.50;99.90
4985;DHT22;2509;49.902;8.600;2022-07-11T09:49:32;23.40;99.90
4985;DHT22;2509;49.902;8.600;2022-07-11T09:52:35;23.50;99.40
4985;DHT22;2509;49.902;8.600;2022-07-11T09:55:38;23.60;98.80
4985;DHT22;2509;49.902;8.600;2022-07-11T09:58:40;23.50;99.90
4985;DHT22;2509;49.902;8.600;2022-07-11T10:01:44;23.50;99.90
4985;DHT22;2509;49.902;8.600;2022-07-11T10:04:46;23.80;99.90
4985;DHT22;2509;49.902;8.600;2022-07-11T10:07:49;24.30;98.40
4985;DHT22;2509;49.902;8.600;2022-07-11T10:10:50;24.80;97.40
4985;DHT22;2509;49.902;8.600;2022-07-11T10:13:52;25.10;97.70
4985;DHT22;2509;49.902;8.600;2022-07-11T10:17:02;25.40;95.50
4985;DHT22;2509;49.902;8.600;2022-07-11T10:20:09;25.50;94.70
4985;DHT22;2509;49.902;8.600;2022-07-11T10:23:20;25.50;95.10
4985;DHT22;2509;49.902;8.600;2022-07-11T10:26:30;25.20;94.40
4985;DHT22;2509;49.902;8.600;2022-07-11T10:29:36;25.20;95.10
4985;DHT22;2509;49.902;8.600;2022-07-11T10:33:00;25.10;95.50
4985;DHT22;2509;49.902;8.600;2022-07-11T10:36:02;25.00;93.90
4985;DHT22;2509;49.902;8.600;2022-07-11T10:39:16;25.00;94.80
4985;DHT22;2509;49.902;8.600;2022-07-11T10:42:19;25.20;95.50
4985;DHT22;2509;49.902;8.600;2022-07-11T10:45:21;25.20;96.00
4985;DHT22;2509;49.902;8.600;2022-07-11T10:48:26;25.10;95.40
4985;DHT22;2509;49.902;8.600;2022-07-11T10:51:35;25.20;95.70
4985;DHT22;2509;49.902;8.600;2022-07-11T10:54:59;25.20;93.40
4985;DHT22;2509;49.902;8.600;2022-07-11T10:58:11;25.40;94.40
4985;DHT22;2509;49.902;8.600;2022-07-11T11:01:16;26.00;94.90
4985;DHT22;2509;49.902;8.600;2022-07-11T11:04:47;26.20;93.50
4985;DHT22;2509;49.902;8.600;2022-07-11T11:07:49;26.10;93.80
4985;DHT22;2509;49.902;8.600;2022-07-11T11:10:51;26.20;93.80
4985;DHT22;2509;49.902;8.600;2022-07-11T11:14:18;26.30;92.30
4985;DHT22;2509;49.902;8.600;2022-07-11T11:17:36;26.10;92.80
4985;DHT22;2509;49.902;8.600;2022-07-11T11:20:39;26.00;93.00
4985;DHT22;2509;49.902;8.600;2022-07-11T11:23:42;26.00;91.80
4985;DHT22;2509;49.902;8.600;2022-07-11T11:26:50;26.00;91.80
4985;DHT22;2509;49.902;8.600;2022-07-11T11:29:53;26.30;90.90
4985;DHT22;2509;49.902;8.600;2022-07-11T11:32:55;26.50;90.40
4985;DHT22;2509;49.902;8.600;2022-07-11T11:36:03;26.80;90.20
4985;DHT22;2509;49.902;8.600;2022-07-11T11:39:05;27.50;89.90
4985;DHT22;2509;49.902;8.600;2022-07-11T11:42:10;28.50;86.00
4985;DHT22;2509;49.902;8.600;2022-07-11T11:45:12;28.80;87.00
4985;DHT22;2509;49.902;8.600;2022-07-11T11:48:26;29.20;86.20
4985;DHT22;2509;49.902;8.600;2022-07-11T11:51:31;29.50;84.90
4985;DHT22;2509;49.902;8.600;2022-07-11T11:54:33;29.70;84.10
4985;DHT22;2509;49.902;8.600;2022-07-11T11:57:35;29.40;83.40
4985;DHT22;2509;49.902;8.600;2022-07-11T12:00:37;28.90;84.50
4985;DHT22;2509;49.902;8.600;2022-07-11T12:03:49;28.50;85.10
4985;DHT22;2509;49.902;8.600;2022-07-11T12:06:52;28.20;85.60
4985;DHT22;2509;49.902;8.600;2022-07-11T12:09:55;28.10;86.30
4985;DHT22;2509;49.902;8.600;2022-07-11T12:12:58;28.00;86.50
4985;DHT22;2509;49.902;8.600;2022-07-11T12:16:00;27.80;86.80
4985;DHT22;2509;49.902;8.600;2022-07-11T12:19:20;27.70;86.80
4985;DHT22;2509;49.902;8.600;2022-07-11T12:22:24;27.80;87.60
4985;DHT22;2509;49.902;8.600;2022-07-11T12:25:28;27.60;86.50
4985;DHT22;2509;49.902;8.600;2022-07-11T12:28:29;27.40;86.70
4985;DHT22;2509;49.902;8.600;2022-07-11T12:31:46;27.70;86.50
4985;DHT22;2509;49.902;8.600;2022-07-11T12:34:49;27.50;87.30
4985;DHT22;2509;49.902;8.600;2022-07-11T12:37:54;27.10;88.50
4985;DHT22;2509;49.902;8.600;2022-07-11T12:41:00;27.10;88.00
4985;DHT22;2509;49.902;8.600;2022-07-11T12:44:02;27.40;88.00
4985;DHT22;2509;49.902;8.600;2022-07-11T12:47:23;27.90;87.80
4985;DHT22;2509;49.902;8.600;2022-07-11T12:50:26;28.50;85.90
4985;DHT22;2509;49.902;8.600;2022-07-11T12:53:30;28.60;83.90
4985;DHT22;2509;49.902;8.600;2022-07-11T12:56:32;28.50;85.30
4985;DHT22;2509;49.902;8.600;2022-07-11T12:59:34;28.10;85.40
4985;DHT22;2509;49.902;8.600;2022-07-11T13:02:37;27.90;85.80
4985;DHT22;2509;49.902;8.600;2022-07-11T13:05:48;27.80;86.00
4985;DHT22;2509;49.902;8.600;2022-07-11T13:08:51;27.60;86.60
4985;DHT22;2509;49.902;8.600;2022-07-11T13:11:52;27.70;86.80
4985;DHT22;2509;49.902;8.600;2022-07-11T13:14:57;27.70;87.10
4985;DHT22;2509;49.902;8.600;2022-07-11T13:18:10;28.30;86.80
4985;DHT22;2509;49.902;8.600;2022-07-11T13:21:12;29.90;83.70
4985;DHT22;2509;49.902;8.600;2022-07-11T13:24:16;30.50;80.90
4985;DHT22;2509;49.902;8.600;2022-07-11T13:27:18;30.20;81.70
4985;DHT22;2509;49.902;8.600;2022-07-11T13:30:21;30.00;81.40
4985;DHT22;2509;49.902;8.600;2022-07-11T13:33:25;30.70;82.00
4985;DHT22;2509;49.902;8.600;2022-07-11T13:36:27;31.60;79.00
4985;DHT22;2509;49.902;8.600;2022-07-11T13:39:30;32.60;76.90
4985;DHT22;2509;49.902;8.600;2022-07-11T13:42:32;34.00;73.70
4985;DHT22;2509;49.902;8.600;2022-07-11T13:45:34;33.50;73.50
4985;DHT22;2509;49.902;8.600;2022-07-11T13:48:36;32.50;74.50
4985;DHT22;2509;49.902;8.600;2022-07-11T13:51:42;32.10;76.40
4985;DHT22;2509;49.902;8.600;2022-07-11T13:54:45;31.70;77.30
4985;DHT22;2509;49.902;8.600;2022-07-11T13:57:49;32.40;76.90
4985;DHT22;2509;49.902;8.600;2022-07-11T14:00:53;31.90;76.80
4985;DHT22;2509;49.902;8.600;2022-07-11T14:03:55;32.70;74.80
4985;DHT22;2509;49.902;8.600;2022-07-11T14:06:58;33.60;74.00
4985;DHT22;2509;49.902;8.600;2022-07-11T14:10:01;34.90;72.70
4985;DHT22;2509;49.902;8.600;2022-07-11T14:13:17;35.80;70.00
4985;DHT22;2509;49.902;8.600;2022-07-11T14:16:37;35.30;70.40
4985;DHT22;2509;49.902;8.600;2022-07-11T14:19:54;35.20;71.60
4985;DHT22;2509;49.902;8.600;2022-07-11T14:23:00;34.20;72.40
4985;DHT22;2509;49.902;8.600;2022-07-11T14:26:12;32.60;73.90
4985;DHT22;2509;49.902;8.600;2022-07-11T14:29:18;30.90;77.60
4985;DHT22;2509;49.902;8.600;2022-07-11T14:32:26;30.10;79.70
4985;DHT22;2509;49.902;8.600;2022-07-11T14:35:28;29.80;80.50
4985;DHT22;2509;49.902;8.600;2022-07-11T14:38:31;29.70;80.30
4985;DHT22;2509;49.902;8.600;2022-07-11T14:41:39;30.00;79.50
4985;DHT22;2509;49.902;8.600;2022-07-11T14:44:44;30.00;79.40
4985;DHT22;2509;49.902;8.600;2022-07-11T14:47:54;29.80;79.20
4985;DHT22;2509;49.902;8.600;2022-07-11T14:50:58;29.60;80.00
4985;DHT22;2509;49.902;8.600;2022-07-11T14:54:08;29.40;80.70
4985;DHT22;2509;49.902;8.600;2022-07-11T14:57:22;29.40;81.00
4985;DHT22;2509;49.902;8.600;2022-07-11T15:00:32;29.50;81.30
4985;DHT22;2509;49.902;8.600;2022-07-11T15:03:34;29.80;81.40
4985;DHT22;2509;49.902;8.600;2022-07-11T15:06:39;29.70;80.50
4985;DHT22;2509;49.902;8.600;2022-07-11T15:09:58;30.30;79.30
4985;DHT22;2509;49.902;8.600;2022-07-11T15:13:18;32.00;77.20
4985;DHT22;2509;49.902;8.600;2022-07-11T15:16:21;33.70;73.30
4985;DHT22;2509;49.902;8.600;2022-07-11T15:19:23;34.20;72.20
4985;DHT22;2509;49.902;8.600;2022-07-11T15:22:25;34.30;72.90
4985;DHT22;2509;49.902;8.600;2022-07-11T15:25:26;35.10;71.00
4985;DHT22;2509;49.902;8.600;2022-07-11T15:28:30;35.40;69.50
4985;DHT22;2509;49.902;8.600;2022-07-11T15:31:32;35.20;68.70
4985;DHT22;2509;49.902;8.600;2022-07-11T15:34:34;33.80;70.90
4985;DHT22;2509;49.902;8.600;2022-07-11T15:37:35;32.50;73.30
4985;DHT22;2509;49.902;8.600;2022-07-11T15:40:37;32.40;74.60
4985;DHT22;2509;49.902;8.600;2022-07-11T15:43:41;33.10;72.90
4985;DHT22;2509;49.902;8.600;2022-07-11T15:46:43;33.70;72.50
4985;DHT22;2509;49.902;8.600;2022-07-11T15:57:21;33.90;71.90
4985;DHT22;2509;49.902;8.600;2022-07-11T16:00:24;34.00;71.30
4985;DHT22;2509;49.902;8.600;2022-07-11T16:03:26;32.90;72.70
4985;DHT22;2509;49.902;8.600;2022-07-11T16:06:28;32.10;74.40
4985;DHT22;2509;49.902;8.600;2022-07-11T16:09:30;31.90;74.00
4985;DHT22;2509;49.902;8.600;2022-07-11T16:12:33;31.90;74.10
4985;DHT22;2509;49.902;8.600;2022-07-11T16:15:36;31.40;74.60
4985;DHT22;2509;49.902;8.600;2022-07-11T16:18:38;30.90;76.10
4985;DHT22;2509;49.902;8.600;2022-07-11T16:21:40;30.50;76.80
4985;DHT22;2509;49.902;8.600;2022-07-11T16:24:42;30.10;77.10
4985;DHT22;2509;49.902;8.600;2022-07-11T16:27:44;29.60;78.80
4985;DHT22;2509;49.902;8.600;2022-07-11T16:30:47;28.90;79.70
4985;DHT22;2509;49.902;8.600;2022-07-11T16:33:49;28.50;80.50
4985;DHT22;2509;49.902;8.600;2022-07-11T16:36:51;28.20;81.10
4985;DHT22;2509;49.902;8.600;2022-07-11T16:39:52;28.00;81.50
4985;DHT22;2509;49.902;8.600;2022-07-11T16:43:08;27.80;82.40
4985;DHT22;2509;49.902;8.600;2022-07-11T16:46:23;27.60;82.90
4985;DHT22;2509;49.902;8.600;2022-07-11T16:49:25;27.50;82.70
4985;DHT22;2509;49.902;8.600;2022-07-11T16:52:27;27.40;82.90
4985;DHT22;2509;49.902;8.600;2022-07-11T16:55:29;27.40;83.80
4985;DHT22;2509;49.902;8.600;2022-07-11T16:58:31;27.10;84.60
4985;DHT22;2509;49.902;8.600;2022-07-11T17:01:34;27.00;84.80
4985;DHT22;2509;49.902;8.600;2022-07-11T17:04:36;26.90;85.00
4985;DHT22;2509;49.902;8.600;2022-07-11T17:07:38;26.80;85.50
4985;DHT22;2509;49.902;8.600;2022-07-11T17:11:03;26.70;86.20
4985;DHT22;2509;49.902;8.600;2022-07-11T17:14:05;26.60;87.50
4985;DHT22;2509;49.902;8.600;2022-07-11T17:17:09;26.30;88.10
4985;DHT22;2509;49.902;8.600;2022-07-11T17:20:11;26.20;88.60
4985;DHT22;2509;49.902;8.600;2022-07-11T17:23:12;26.30;89.00
4985;DHT22;2509;49.902;8.600;2022-07-11T17:26:15;26.00;90.00
4985;DHT22;2509;49.902;8.600;2022-07-11T17:29:18;25.70;91.00
4985;DHT22;2509;49.902;8.600;2022-07-11T17:32:21;25.40;91.90
4985;DHT22;2509;49.902;8.600;2022-07-11T17:35:23;25.10;92.60
4985;DHT22;2509;49.902;8.600;2022-07-11T17:38:25;24.90;95.90
4985;DHT22;2509;49.902;8.600;2022-07-11T17:41:27;24.60;94.90
4985;DHT22;2509;49.902;8.600;2022-07-11T17:44:29;24.30;97.00
4985;DHT22;2509;49.902;8.600;2022-07-11T17:47:33;24.10;97.60
4985;DHT22;2509;49.902;8.600;2022-07-11T17:50:35;23.90;97.10
4985;DHT22;2509;49.902;8.600;2022-07-11T17:53:37;23.70;98.40
4985;DHT22;2509;49.902;8.600;2022-07-11T17:56:38;23.50;98.80
4985;DHT22;2509;49.902;8.600;2022-07-11T17:59:40;23.50;99.30
4985;DHT22;2509;49.902;8.600;2022-07-11T18:02:44;23.40;99.10
4985;DHT22;2509;49.902;8.600;2022-07-11T18:05:45;23.30;99.40
4985;DHT22;2509;49.902;8.600;2022-07-11T18:08:47;23.20;99.90
4985;DHT22;2509;49.902;8.600;2022-07-11T18:11:49;23.10;99.50
4985;DHT22;2509;49.902;8.600;2022-07-11T18:14:51;23.10;99.90
4985;DHT22;2509;49.902;8.600;2022-07-11T18:17:54;23.00;99.70
4985;DHT22;2509;49.902;8.600;2022-07-11T18:20:56;22.90;99.90
4985;DHT22;2509;49.902;8.600;2022-07-11T18:23:57;22.80;99.90
4985;DHT22;2509;49.902;8.600;2022-07-11T18:27:00;22.70;99.90
4985;DHT22;2509;49.902;8.600;2022-07-11T18:30:03;22.70;99.90
4985;DHT22;2509;49.902;8.600;2022-07-11T18:33:06;22.70;99.90
4985;DHT22;2509;49.902;8.600;2022-07-11T18:36:08;22.60;99.90
4985;DHT22;2509;49.902;8.600;2022-07-11T18:39:10;22.60;99.90
4985;DHT22;2509;49.902;8.600;2022-07-11T18:42:29;22.60;99.90
4985;DHT22;2509;49.902;8.600;2022-07-11T18:45:31;22.60;99.90
4985;DHT22;2509;49.902;8.600;2022-07-11T18:48:34;22.50;99.90
4985;DHT22;2509;49.902;8.600;2022-07-11T18:51:37;22.50;99.90
4985;DHT22;2509;49.902;8.600;2022-07-11T18:54:38;22.50;99.90
4985;DHT22;2509;49.902;8.600;2022-07-11T18:57:40;22.50;99.90
4985;DHT22;2509;49.902;8.600;2022-07-11T19:00:42;22.50;99.90
4985;DHT22;2509;49.902;8.600;2022-07-11T19:03:45;22.40;99.90
4985;DHT22;2509;49.902;8.600;2022-07-11T19:06:47;22.30;99.90
4985;DHT22;2509;49.902;8.600;2022-07-11T19:09:49;22.30;99.90
4985;DHT22;2509;49.902;8.600;2022-07-11T19:12:51;22.20;99.90
4985;DHT22;2509;49.902;8.600;2022-07-11T19:15:53;22.20;99.90
4985;DHT22;2509;49.902;8.600;2022-07-11T19:18:56;22.20;99.90
4985;DHT22;2509;49.902;8.600;2022-07-11T19:21:58;22.20;99.90
4985;DHT22;2509;49.902;8.600;2022-07-11T19:25:01;22.10;99.90
4985;DHT22;2509;49.902;8.600;2022-07-11T19:28:03;22.10;99.90
4985;DHT22;2509;49.902;8.600;2022-07-11T19:31:05;22.10;99.90
4985;DHT22;2509;49.902;8.600;2022-07-11T19:34:09;22.00;99.90
4985;DHT22;2509;49.902;8.600;2022-07-11T19:37:10;22.00;99.90
4985;DHT22;2509;49.902;8.600;2022-07-11T19:40:14;21.90;99.90
4985;DHT22;2509;49.902;8.600;2022-07-11T19:43:16;22.00;99.90
4985;DHT22;2509;49.902;8.600;2022-07-11T19:46:18;21.90;99.90
4985;DHT22;2509;49.902;8.600;2022-07-11T19:49:21;21.90;99.90
4985;DHT22;2509;49.902;8.600;2022-07-11T19:52:23;21.80;99.90
4985;DHT22;2509;49.902;8.600;2022-07-11T19:55:25;21.80;99.90
4985;DHT22;2509;49.902;8.600;2022-07-11T19:58:44;21.70;99.90
4985;DHT22;2509;49.902;8.600;2022-07-11T20:01:46;21.70;99.90
4985;DHT22;2509;49.902;8.600;2022-07-11T20:04:49;21.60;99.90
4985;DHT22;2509;49.902;8.600;2022-07-11T20:07:51;21.60;99.90